Time;durP1;ratioP1;P1;durP2;ratioP2;P2;SDS_P1;SDS_P2;PMS_P1;PMS_P2;Temp;Humidity;BMP_temperature;BMP_pressure;BME280_temperature;BME280_humidity;BME280_pressure;Samples;Min_cycle;Max_cycle;Signal;HPM_P1;HPM_P2
2023/09/13 00:01:30;;;;;;;34.85;31.05;;;;;;;18.40;100.00;101198.41;5009563;28;20470;-78
2023/09/13 00:03:57;;;;;;;32.40;28.88;;;;;;;18.39;100.00;101196.72;5010683;28;20048;-76
2023/09/13 00:06:22;;;;;;;36.88;29.73;;;;;;;18.41;100.00;101196.56;5011622;28;20022;-76
2023/09/13 00:08:47;;;;;;;35.08;30.50;;;;;;;18.43;100.00;101202.59;5012472;28;20493;-75
2023/09/13 00:11:14;;;;;;;35.75;31.08;;;;;;;18.45;100.00;101190.78;5011828;28;20049;-79
2023/09/13 00:13:39;;;;;;;33.65;30.10;;;;;;;18.45;100.00;101192.63;5010644;28;20032;-78
2023/09/13 00:16:04;;;;;;;35.38;30.30;;;;;;;18.47;100.00;101190.63;5012327;28;20386;-75
2023/09/13 00:18:30;;;;;;;35.75;30.05;;;;;;;18.47;100.00;101187.97;5012237;28;20037;-75
2023/09/13 00:20:55;;;;;;;35.03;31.05;;;;;;;18.42;100.00;101196.44;5011689;28;20088;-75
2023/09/13 00:23:21;;;;;;;35.15;31.10;;;;;;;18.40;100.00;101193.06;5012412;28;20057;-76
2023/09/13 00:25:46;;;;;;;34.72;30.98;;;;;;;18.39;100.00;101195.88;5012459;28;20664;-76
2023/09/13 00:28:12;;;;;;;38.22;30.70;;;;;;;18.38;100.00;101194.22;5012397;28;20018;-75
2023/09/13 00:30:38;;;;;;;37.30;33.28;;;;;;;18.35;100.00;101199.84;5033624;28;20029;-75
2023/09/13 00:33:03;;;;;;;39.45;33.15;;;;;;;18.34;100.00;101195.53;5031822;28;20393;-77
2023/09/13 00:35:29;;;;;;;40.08;33.13;;;;;;;18.35;100.00;101192.69;5046633;28;20029;-75
2023/09/13 00:37:55;;;;;;;39.85;33.08;;;;;;;18.35;100.00;101197.19;5033002;28;20026;-79
2023/09/13 00:40:22;;;;;;;41.72;34.45;;;;;;;18.31;100.00;101198.50;5048073;28;20126;-75
2023/09/13 00:42:47;;;;;;;39.53;32.67;;;;;;;18.32;100.00;101201.00;5030604;28;20572;-79
2023/09/13 00:45:13;;;;;;;40.13;34.13;;;;;;;18.30;100.00;101199.50;5033217;28;20104;-75
2023/09/13 00:47:40;;;;;;;43.45;34.53;;;;;;;18.27;100.00;101197.97;5032700;28;20017;-75
2023/09/13 00:50:11;;;;;;;39.25;34.97;;;;;;;18.25;100.00;101199.97;5032154;28;20381;-75
2023/09/13 00:52:39;;;;;;;43.17;36.60;;;;;;;18.22;100.00;101199.44;5032680;28;20044;-79
2023/09/13 00:55:06;;;;;;;47.10;37.38;;;;;;;18.23;100.00;101201.94;5019931;28;20037;-75
2023/09/13 00:57:33;;;;;;;47.53;37.28;;;;;;;18.23;100.00;101201.09;5011354;28;20022;-75
2023/09/13 01:00:00;;;;;;;46.72;37.90;;;;;;;18.25;100.00;101197.28;5012374;28;20112;-79
2023/09/13 01:02:25;;;;;;;49.95;39.70;;;;;;;18.25;100.00;101197.28;5011832;28;20026;-74
2023/09/13 01:04:50;;;;;;;53.83;39.42;;;;;;;18.24;100.00;101197.44;5010238;28;20064;-78
2023/09/13 01:07:16;;;;;;;51.72;40.10;;;;;;;18.27;100.00;101199.81;5027051;28;20029;-76
2023/09/13 01:09:42;;;;;;;49.92;41.08;;;;;;;18.26;100.00;101198.13;5010835;28;20030;-74
2023/09/13 01:12:14;;;;;;;47.20;38.83;;;;;;;18.27;100.00;101205.13;5011659;28;20029;-79
2023/09/13 01:14:43;;;;;;;51.65;41.08;;;;;;;18.24;100.00;101192.94;5011094;28;20147;-75
2023/09/13 01:17:23;;;;;;;50.15;38.67;;;;;;;18.24;100.00;101192.13;5010474;28;20033;-75
2023/09/13 01:20:10;;;;;;;47.35;39.45;;;;;;;18.22;100.00;101194.09;5011010;28;20049;-75
2023/09/13 01:22:44;;;;;;;50.58;39.72;;;;;;;18.20;100.00;101194.25;5026673;28;20375;-79
2023/09/13 01:25:42;;;;;;;49.67;40.05;;;;;;;18.24;100.00;101192.13;5009173;28;20044;-75
2023/09/13 01:28:35;;;;;;;49.67;41.15;;;;;;;18.21;100.00;101192.44;5011533;28;20085;-75
2023/09/13 01:31:09;;;;;;;54.10;41.85;;;;;;;18.14;100.00;101203.72;5029056;28;20055;-79
2023/09/13 01:33:35;;;;;;;55.40;42.50;;;;;;;18.10;100.00;101197.03;5031309;28;20052;-79
2023/09/13 01:36:00;;;;;;;52.33;40.20;;;;;;;18.13;100.00;101198.53;5030708;28;20029;-79
2023/09/13 01:38:27;;;;;;;60.40;44.85;;;;;;;18.08;100.00;101199.00;5028727;28;20389;-75
2023/09/13 01:41:02;;;;;;;60.55;45.45;;;;;;;18.04;100.00;101202.97;5030544;28;20053;-75
2023/09/13 01:43:28;;;;;;;59.95;46.63;;;;;;;18.02;100.00;101196.94;5030195;28;20057;-75
2023/09/13 01:45:54;;;;;;;64.70;48.35;;;;;;;17.96;100.00;101197.53;5030702;28;20030;-75
2023/09/13 01:48:20;;;;;;;68.35;49.00;;;;;;;17.99;100.00;101199.91;5031333;28;20025;-75
2023/09/13 01:50:47;;;;;;;68.20;51.13;;;;;;;17.93;100.00;101208.50;5031322;28;20033;-75
2023/09/13 01:53:13;;;;;;;74.82;54.40;;;;;;;17.91;100.00;101213.13;5029639;28;20026;-75
2023/09/13 01:55:38;;;;;;;68.38;52.67;;;;;;;17.88;100.00;101218.75;5014182;28;20029;-79
2023/09/13 01:58:05;;;;;;;73.05;52.67;;;;;;;17.88;100.00;101218.75;5011140;28;20641;-75
2023/09/13 02:00:31;;;;;;;69.30;52.92;;;;;;;17.89;100.00;101215.13;5012462;28;20540;-75
2023/09/13 02:02:57;;;;;;;74.13;53.75;;;;;;;17.87;100.00;101219.75;5011471;28;20057;-79
2023/09/13 02:05:23;;;;;;;75.40;55.35;;;;;;;17.83;100.00;101218.38;5011710;28;20454;-75
2023/09/13 02:07:49;;;;;;;78.68;55.35;;;;;;;17.81;100.00;101218.53;5011934;28;20021;-79
2023/09/13 02:10:14;;;;;;;74.93;54.85;;;;;;;17.76;100.00;101222.66;5011590;28;20033;-80
2023/09/13 02:12:39;;;;;;;78.65;54.90;;;;;;;17.80;100.00;101229.34;5007822;28;20045;-75
2023/09/13 02:15:05;;;;;;;82.97;57.00;;;;;;;17.77;100.00;101233.13;5010252;28;20018;-80
2023/09/13 02:17:32;;;;;;;82.22;58.22;;;;;;;17.80;100.00;101226.69;5009029;28;20117;-75
2023/09/13 02:19:57;;;;;;;85.78;59.05;;;;;;;17.79;100.00;101225.84;5009743;28;20030;-75
2023/09/13 02:22:23;;;;;;;91.10;62.10;;;;;;;17.82;100.00;101228.19;5010546;28;20367;-75
2023/09/13 02:24:49;;;;;;;97.90;63.72;;;;;;;17.81;100.00;101239.00;5010766;28;20030;-79
2023/09/13 02:27:15;;;;;;;102.05;66.13;;;;;;;17.82;100.00;101235.34;5009970;28;20377;-74
2023/09/13 02:29:40;;;;;;;100.85;64.80;;;;;;;17.83;100.00;101242.34;5026628;28;20024;-78
2023/09/13 02:32:06;;;;;;;103.15;66.30;;;;;;;17.80;100.00;101234.66;5032674;28;20033;-75
2023/09/13 02:34:32;;;;;;;105.97;68.05;;;;;;;17.83;100.00;101239.69;5032336;28;20057;-75
2023/09/13 02:36:59;;;;;;;106.65;66.53;;;;;;;17.83;100.00;101239.69;5032240;28;20037;-75
2023/09/13 02:39:35;;;;;;;108.72;68.72;;;;;;;17.82;100.00;101238.84;5032412;28;20675;-75
2023/09/13 02:42:05;;;;;;;108.28;68.53;;;;;;;17.84;100.00;101244.03;5029763;28;20841;-75
2023/09/13 02:44:31;;;;;;;102.72;64.95;;;;;;;17.87;100.00;101242.88;5032078;28;20048;-74
2023/09/13 02:46:57;;;;;;;99.78;65.43;;;;;;;17.84;100.00;101234.22;5032568;28;20042;-74
2023/09/13 02:49:23;;;;;;;95.57;64.10;;;;;;;17.80;100.00;101234.66;5030574;28;20053;-75
2023/09/13 02:51:49;;;;;;;98.82;64.10;;;;;;;17.79;100.00;101236.50;5031018;28;20014;-74
2023/09/13 02:54:17;;;;;;;94.68;63.00;;;;;;;17.81;100.00;101246.97;5027613;28;20022;-74
2023/09/13 02:56:46;;;;;;;95.85;63.80;;;;;;;17.72;100.00;101240.75;5014854;28;20486;-74
2023/09/13 02:59:11;;;;;;;96.93;62.97;;;;;;;17.73;100.00;101239.75;5012707;28;20057;-78
2023/09/13 03:01:37;;;;;;;94.28;63.22;;;;;;;17.72;100.00;101245.22;5010074;28;20194;-74
2023/09/13 03:04:03;;;;;;;93.05;64.03;;;;;;;17.70;100.00;101250.72;5010380;28;20036;-74
2023/09/13 03:06:29;;;;;;;92.35;62.15;;;;;;;17.70;100.00;101252.53;5012306;28;20442;-74
2023/09/13 03:08:55;;;;;;;94.82;61.92;;;;;;;17.70;100.00;101252.53;5009723;28;20034;-78
2023/09/13 03:11:21;;;;;;;93.70;62.20;;;;;;;17.69;100.00;101256.19;5011827;28;20390;-75
2023/09/13 03:13:48;;;;;;;96.18;62.92;;;;;;;17.68;100.00;101259.81;5011095;28;20032;-75
2023/09/13 03:16:21;;;;;;;93.35;61.65;;;;;;;17.69;100.00;101259.69;5016617;28;20350;-78
2023/09/13 03:18:48;;;;;;;;;;;;;;;17.77;100.00;101261.59;5033525;28;20034;-74
2023/09/13 03:21:13;;;;;;;92.20;59.75;;;;;;;17.69;100.00;101261.50;5030800;28;19956;-78
2023/09/13 03:23:44;;;;;;;93.43;61.83;;;;;;;17.66;100.00;101261.78;5037101;28;20071;-75
2023/09/13 03:26:24;;;;;;;92.88;61.75;;;;;;;17.70;100.00;101252.53;5029460;28;20533;-75
2023/09/13 03:28:52;;;;;;;90.20;61.70;;;;;;;17.67;100.00;101253.66;5029634;28;20496;-79
2023/09/13 03:31:25;;;;;;;98.05;62.85;;;;;;;17.64;100.00;101259.25;5029070;28;20025;-78
2023/09/13 03:33:53;;;;;;;97.95;62.28;;;;;;;17.64;100.00;101258.41;5029662;28;20029;-78
2023/09/13 03:36:19;;;;;;;94.00;61.90;;;;;;;17.66;100.00;101259.94;5031040;28;20052;-75
2023/09/13 03:38:46;;;;;;;93.55;62.28;;;;;;;17.66;100.00;101264.44;5034083;28;20057;-75
2023/09/13 03:41:13;;;;;;;94.95;63.05;;;;;;;17.70;100.00;101273.81;5034227;28;20022;-79
2023/09/13 03:43:39;;;;;;;89.40;60.35;;;;;;;17.72;100.00;101277.16;5031702;28;20080;-75
2023/09/13 03:46:07;;;;;;;97.55;62.22;;;;;;;17.71;100.00;101270.19;5033266;28;20053;-75
2023/09/13 03:48:35;;;;;;;99.32;65.25;;;;;;;17.71;100.00;101267.50;5034013;28;20048;-75
2023/09/13 03:51:01;;;;;;;98.68;62.53;;;;;;;17.72;100.00;101266.53;5034119;28;20033;-78
2023/09/13 03:53:27;;;;;;;103.47;65.10;;;;;;;17.69;100.00;101266.81;5035375;28;20039;-74
2023/09/13 03:55:53;;;;;;;97.03;62.63;;;;;;;17.71;100.00;101264.84;5034998;28;20088;-75
2023/09/13 03:58:19;;;;;;;99.35;62.38;;;;;;;17.70;100.00;101271.16;5034392;28;20017;-78
2023/09/13 04:00:45;;;;;;;99.28;63.17;;;;;;;17.70;100.00;101265.84;5034892;28;20044;-79
2023/09/13 04:03:12;;;;;;;97.75;62.47;;;;;;;17.71;100.00;101262.19;5034060;28;20021;-75
2023/09/13 04:05:39;;;;;;;98.25;62.67;;;;;;;17.67;100.00;101266.97;5031940;28;20397;-75
2023/09/13 04:08:04;;;;;;;91.28;61.00;;;;;;;17.69;100.00;101269.47;5034751;28;20230;-78
2023/09/13 04:10:30;;;;;;;96.53;60.63;;;;;;;17.70;100.00;101268.50;5034576;28;20032;-79
2023/09/13 04:12:55;;;;;;;92.20;61.55;;;;;;;17.68;100.00;101259.81;5032328;28;20072;-82
2023/09/13 04:15:20;;;;;;;92.35;60.83;;;;;;;17.67;100.00;101268.81;5033310;28;20469;-76
2023/09/13 04:17:46;;;;;;;97.40;60.03;;;;;;;17.67;100.00;101268.81;5048984;28;20025;-76
2023/09/13 04:20:13;;;;;;;93.72;59.90;;;;;;;17.62;100.00;101265.72;5031650;28;20036;-75
2023/09/13 04:22:39;;;;;;;93.15;59.33;;;;;;;17.61;100.00;101264.00;5033472;28;20056;-76
2023/09/13 04:25:05;;;;;;;85.97;58.17;;;;;;;17.60;100.00;101272.97;5033703;28;20067;-75
2023/09/13 04:27:31;;;;;;;92.25;56.75;;;;;;;17.61;100.00;101277.31;5036728;28;20034;-75
2023/09/13 04:29:56;;;;;;;86.05;57.92;;;;;;;17.60;100.00;101275.66;5016470;28;20038;-77
2023/09/13 04:32:26;;;;;;;85.72;57.70;;;;;;;17.62;100.00;101276.38;5012187;28;20076;-75
2023/09/13 04:34:52;;;;;;;91.68;59.40;;;;;;;17.60;100.00;101278.31;5011342;28;20029;-75
2023/09/13 04:37:17;;;;;;;92.00;59.33;;;;;;;17.60;100.00;101279.13;5029959;28;20030;-75
2023/09/13 04:39:43;;;;;;;82.95;56.10;;;;;;;17.63;100.00;101280.69;5014746;28;20113;-79
2023/09/13 04:42:09;;;;;;;88.25;56.70;;;;;;;17.64;100.00;101282.38;5013138;28;20030;-76
2023/09/13 04:44:34;;;;;;;86.60;55.05;;;;;;;17.64;100.00;101277.06;5012781;28;20506;-75
2023/09/13 04:47:01;;;;;;;87.63;56.72;;;;;;;17.63;100.00;101280.69;5013283;28;20022;-75
2023/09/13 04:49:26;;;;;;;89.93;57.55;;;;;;;17.62;100.00;101277.19;5012361;28;20045;-76
2023/09/13 04:51:52;;;;;;;86.10;56.67;;;;;;;17.66;100.00;101283.06;5012551;28;20026;-75
2023/09/13 04:54:18;;;;;;;84.45;54.40;;;;;;;17.63;100.00;101283.34;5016910;28;20013;-79
2023/09/13 04:56:43;;;;;;;89.53;56.67;;;;;;;17.59;100.00;101276.63;5032999;28;20020;-79
2023/09/13 04:59:10;;;;;;;87.95;56.38;;;;;;;17.57;100.00;101283.94;5048615;28;20025;-75
2023/09/13 05:01:36;;;;;;;91.13;55.90;;;;;;;17.58;100.00;101285.59;5032430;28;20481;-75
2023/09/13 05:04:01;;;;;;;88.95;55.95;;;;;;;17.58;100.00;101285.59;5032940;28;20029;-75
2023/09/13 05:06:26;;;;;;;79.18;53.97;;;;;;;17.58;100.00;101288.25;5033353;28;20087;-79
2023/09/13 05:08:55;;;;;;;81.72;54.63;;;;;;;17.57;100.00;101291.91;5031706;28;20494;-79
2023/09/13 05:11:23;;;;;;;80.45;54.25;;;;;;;17.58;100.00;101293.59;5048431;28;20037;-75
2023/09/13 05:13:50;;;;;;;82.85;54.13;;;;;;;17.55;100.00;101297.38;5047799;28;20049;-75
2023/09/13 05:16:19;;;;;;;82.25;54.05;;;;;;;17.54;100.00;101291.22;5031403;28;20047;-75
2023/09/13 05:18:46;;;;;;;80.18;53.67;;;;;;;17.54;100.00;101291.22;5034122;28;20072;-75
2023/09/13 05:21:11;;;;;;;78.05;52.80;;;;;;;17.53;100.00;101289.53;5032205;28;20029;-79
2023/09/13 05:23:36;;;;;;;79.00;53.03;;;;;;;17.49;100.00;101287.31;5030015;28;20429;-75
2023/09/13 05:26:04;;;;;;;76.72;52.53;;;;;;;17.47;100.00;101287.47;5031413;28;20555;-76
2023/09/13 05:28:36;;;;;;;80.80;53.38;;;;;;;17.42;100.00;101280.94;5026657;28;20026;-75
2023/09/13 05:31:01;;;;;;;80.90;55.05;;;;;;;17.40;100.00;101288.22;5010756;28;20270;-80
2023/09/13 05:33:27;;;;;;;80.53;53.53;;;;;;;17.38;100.00;101284.88;5011333;28;20442;-75
2023/09/13 05:35:52;;;;;;;80.88;53.47;;;;;;;17.36;100.00;101289.50;5010046;28;20057;-79
2023/09/13 05:38:18;;;;;;;77.05;53.35;;;;;;;17.38;100.00;101299.00;5009661;28;20053;-76
2023/09/13 05:40:43;;;;;;;76.07;53.78;;;;;;;17.39;100.00;101302.50;5012159;28;20050;-76
2023/09/13 05:43:13;;;;;;;80.63;55.92;;;;;;;17.36;100.00;101314.28;5010955;28;20080;-75
2023/09/13 05:45:47;;;;;;;81.55;53.70;;;;;;;17.40;100.00;101315.66;5011144;28;20061;-76
2023/09/13 05:48:13;;;;;;;76.03;52.63;;;;;;;17.42;100.00;101313.69;5010874;28;20021;-75
2023/09/13 05:50:38;;;;;;;80.10;54.30;;;;;;;17.41;100.00;101312.00;5010208;28;20391;-76
2023/09/13 05:53:04;;;;;;;77.85;51.90;;;;;;;17.41;100.00;101322.66;5010709;28;20030;-79
2023/09/13 05:55:29;;;;;;;77.97;53.50;;;;;;;17.42;100.00;101324.31;5026306;28;20481;-76
2023/09/13 05:57:56;;;;;;;77.47;51.72;;;;;;;17.43;100.00;101323.34;5030947;28;20029;-79
2023/09/13 06:00:22;;;;;;;81.65;53.40;;;;;;;17.45;100.00;101324.03;5031249;28;20033;-76
2023/09/13 06:02:47;;;;;;;74.07;52.50;;;;;;;17.46;100.00;101325.72;5031408;28;20025;-80
2023/09/13 06:05:17;;;;;;;82.00;52.92;;;;;;;17.48;100.00;101323.75;5030890;28;20100;-79
2023/09/13 06:07:43;;;;;;;79.03;51.85;;;;;;;17.48;100.00;101323.75;5046748;28;20497;-75
2023/09/13 06:10:08;;;;;;;74.45;50.92;;;;;;;17.49;100.00;101335.22;5030974;28;20029;-75
2023/09/13 06:12:36;;;;;;;73.60;50.83;;;;;;;17.50;100.00;101342.22;5030559;28;20137;-75
2023/09/13 06:15:01;;;;;;;68.55;49.75;;;;;;;17.47;100.00;101346.00;5045964;28;20183;-79
2023/09/13 06:17:27;;;;;;;70.28;49.85;;;;;;;17.51;100.00;101344.72;5029826;28;20025;-76
2023/09/13 06:19:53;;;;;;;67.07;47.15;;;;;;;17.55;100.00;101350.59;5028987;28;20041;-80
2023/09/13 06:22:19;;;;;;;69.32;47.85;;;;;;;17.57;100.00;101358.44;5030996;28;20385;-79
2023/09/13 06:24:45;;;;;;;66.18;46.40;;;;;;;17.57;100.00;101358.44;5030983;28;20036;-80
2023/09/13 06:27:10;;;;;;;65.35;45.75;;;;;;;17.59;100.00;101351.13;5030234;28;20025;-76
2023/09/13 06:29:35;;;;;;;60.92;45.13;;;;;;;17.62;100.00;101358.84;5016453;28;20053;-79
2023/09/13 06:32:02;;;;;;;64.93;46.05;;;;;;;17.68;100.00;101366.28;5009849;28;20084;-79
2023/09/13 06:34:28;;;;;;;61.92;44.80;;;;;;;17.72;100.00;101373.00;5009721;28;20508;-76
2023/09/13 06:36:55;;;;;;;59.83;43.88;;;;;;;17.71;100.00;101372.16;5010008;28;20037;-79
2023/09/13 06:39:20;;;;;;;60.45;43.80;;;;;;;17.72;100.00;101367.66;5010492;28;20084;-76
2023/09/13 06:41:45;;;;;;;62.10;43.97;;;;;;;17.71;100.00;101369.50;5008221;28;20065;-76
2023/09/13 06:44:11;;;;;;;53.13;39.28;;;;;;;17.74;100.00;101377.19;5009640;28;20400;-76
2023/09/13 06:46:37;;;;;;;52.35;39.47;;;;;;;17.74;100.00;101385.16;5009794;28;20077;-76
2023/09/13 06:49:03;;;;;;;53.33;38.90;;;;;;;17.78;100.00;101383.03;5008690;28;20024;-75
2023/09/13 06:51:29;;;;;;;59.90;41.67;;;;;;;17.82;100.00;101384.41;5009869;28;20029;-76
2023/09/13 06:53:54;;;;;;;61.70;42.70;;;;;;;17.84;100.00;101385.13;5010847;28;20389;-75
2023/09/13 06:56:19;;;;;;;64.88;44.85;;;;;;;17.85;100.00;101384.97;5028428;28;20067;-76
2023/09/13 06:58:45;;;;;;;64.82;45.42;;;;;;;17.88;100.00;101385.66;5029382;28;20022;-78
2023/09/13 07:01:10;;;;;;;65.35;45.08;;;;;;;17.84;100.00;101388.63;5028667;28;20026;-75
2023/09/13 07:03:35;;;;;;;65.97;46.25;;;;;;;17.90;100.00;101395.16;5030072;28;20037;-75
2023/09/13 07:06:01;;;;;;;65.32;46.25;;;;;;;17.92;100.00;101405.66;5029646;28;20033;-74
2023/09/13 07:08:26;;;;;;;70.68;46.45;;;;;;;17.93;100.00;101407.34;5029443;28;20556;-78
2023/09/13 07:10:52;;;;;;;64.90;45.97;;;;;;;17.96;100.00;101407.88;5030095;28;20045;-79
2023/09/13 07:13:17;;;;;;;63.13;44.72;;;;;;;17.97;100.00;101414.88;5028646;28;20021;-79
2023/09/13 07:15:42;;;;;;;65.43;44.97;;;;;;;18.03;100.00;101408.16;5030071;28;20359;-78
2023/09/13 07:18:08;;;;;;;69.28;45.53;;;;;;;18.03;100.00;101410.81;5028725;28;20060;-76
2023/09/13 07:20:34;;;;;;;63.65;43.88;;;;;;;18.09;100.00;101407.56;5030746;28;20021;-75
2023/09/13 07:23:00;;;;;;;65.93;45.53;;;;;;;18.16;100.00;101408.63;5029433;28;20025;-79
2023/09/13 07:25:27;;;;;;;64.85;44.47;;;;;;;18.24;100.00;101410.56;5030727;28;20513;-76
2023/09/13 07:27:52;;;;;;;55.58;42.08;;;;;;;18.30;100.00;101409.94;5030017;28;20025;-80
2023/09/13 07:30:18;;;;;;;61.60;42.75;;;;;;;18.41;100.00;101412.41;5009838;28;20377;-76
2023/09/13 07:32:47;;;;;;;56.67;42.78;;;;;;;18.56;100.00;101420.72;5010104;28;20022;-75
2023/09/13 07:35:12;;;;;;;57.45;41.30;;;;;;;18.60;100.00;101416.78;5010179;28;20025;-75
2023/09/13 07:37:37;;;;;;;55.05;40.70;;;;;;;18.61;100.00;101419.28;5009591;28;20360;-76
2023/09/13 07:40:04;;;;;;;55.78;40.65;;;;;;;18.56;100.00;101424.22;5009130;28;20085;-79
2023/09/13 07:42:30;;;;;;;54.40;40.08;;;;;;;18.47;100.00;101427.81;5024773;28;20034;-79
2023/09/13 07:44:55;;;;;;;60.35;40.72;;;;;;;18.49;100.00;101425.84;5009388;28;20034;-79
2023/09/13 07:47:22;;;;;;;56.47;40.80;;;;;;;18.47;100.00;101427.81;5010150;28;20014;-76
2023/09/13 07:49:47;;;;;;;54.03;40.03;;;;;;;18.47;100.00;101435.81;5008892;28;20054;-76
2023/09/13 07:52:15;;;;;;;56.65;41.10;;;;;;;18.41;100.00;101449.69;5010772;28;20064;-76
2023/09/13 07:54:43;;;;;;;30.98;22.65;;;;;;;18.29;100.00;101445.56;5018646;28;20096;-80
2023/09/13 07:57:09;;;;;;;17.52;12.98;;;;;;;18.05;100.00;101460.28;5028251;28;20029;-80
2023/09/13 07:59:34;;;;;;;10.25;8.10;;;;;;;17.94;100.00;101468.44;5029155;28;20370;-80
2023/09/13 08:01:59;;;;;;;8.07;5.03;;;;;;;17.74;100.00;101467.69;5028761;28;20527;-80
2023/09/13 08:04:25;;;;;;;7.00;4.22;;;;;;;17.65;100.00;101470.34;5027946;28;20115;-80
2023/09/13 08:06:50;;;;;;;5.70;3.60;;;;;;;17.54;100.00;101476.66;5028918;28;20049;-77
2023/09/13 08:09:17;;;;;;;4.43;2.88;;;;;;;17.49;100.00;101481.56;5028916;28;20104;-76
2023/09/13 08:11:47;;;;;;;3.50;2.30;;;;;;;17.44;100.00;101489.97;5028504;28;20040;-76
2023/09/13 08:14:12;;;;;;;2.35;1.40;;;;;;;17.48;100.00;101499.34;5028825;28;20053;-76
2023/09/13 08:16:38;;;;;;;3.03;1.50;;;;;;;17.40;100.00;101501.03;5029088;28;20056;-76
2023/09/13 08:19:03;;;;;;;1.73;1.30;;;;;;;17.41;100.00;101508.88;5026859;28;20037;-77
2023/09/13 08:21:29;;;;;;;2.58;1.23;;;;;;;17.27;100.00;101506.66;5029964;28;20029;-76
2023/09/13 08:23:54;;;;;;;3.25;1.08;;;;;;;17.20;100.00;101518.81;5028216;28;20075;-78
2023/09/13 08:26:19;;;;;;;2.50;1.25;;;;;;;17.12;100.00;101530.16;5032680;28;20080;-76
2023/09/13 08:28:45;;;;;;;2.38;1.20;;;;;;;17.15;100.00;101535.19;5025781;28;20117;-77
2023/09/13 08:31:11;;;;;;;1.42;1.20;;;;;;;17.14;100.00;101535.34;5011434;28;20033;-79
2023/09/13 08:33:36;;;;;;;2.67;1.30;;;;;;;17.12;100.00;101524.84;5010875;28;20037;-76
2023/09/13 08:36:02;;;;;;;2.40;1.25;;;;;;;17.16;100.00;101546.66;5013133;28;20108;-77
2023/09/13 08:38:29;;;;;;;2.20;1.25;;;;;;;17.15;100.00;101552.97;5013381;28;20030;-76
2023/09/13 08:40:54;;;;;;;3.25;1.20;;;;;;;17.21;100.00;101555.06;5012375;28;20504;-76
2023/09/13 08:43:20;;;;;;;1.55;1.10;;;;;;;17.09;100.00;101565.00;5012740;28;20053;-76
2023/09/13 08:45:51;;;;;;;2.03;1.00;;;;;;;17.07;100.00;101569.63;5012933;28;20029;-76
2023/09/13 08:48:18;;;;;;;1.30;0.90;;;;;;;17.04;100.00;101585.00;5012611;28;20048;-77
2023/09/13 08:50:46;;;;;;;1.70;1.20;;;;;;;16.96;100.00;101587.53;5013064;28;20048;-78
2023/09/13 08:53:12;;;;;;;2.33;1.10;;;;;;;16.96;100.00;101587.53;5012086;28;20036;-76
2023/09/13 08:55:38;;;;;;;1.27;0.90;;;;;;;17.06;100.00;101593.69;5029511;28;20034;-76
2023/09/13 08:58:04;;;;;;;2.60;1.10;;;;;;;17.14;100.00;101604.47;5033227;28;20120;-79
2023/09/13 09:00:37;;;;;;;2.35;1.00;;;;;;;17.24;100.00;101605.34;5032928;28;20157;-77
2023/09/13 09:03:04;;;;;;;1.30;0.88;;;;;;;17.36;100.00;101614.88;5032195;28;20173;-76
2023/09/13 09:05:32;;;;;;;3.70;0.98;;;;;;;17.39;100.00;101619.91;5047158;28;20034;-78
2023/09/13 09:07:58;;;;;;;0.90;0.60;;;;;;;17.38;100.00;101620.06;5031438;28;20072;-78
2023/09/13 09:10:24;;;;;;;2.85;0.90;;;;;;;17.44;100.00;101622.16;5032379;28;20390;-78
2023/09/13 09:12:52;;;;;;;1.10;0.80;;;;;;;17.49;100.00;101633.22;5033120;28;20049;-77
2023/09/13 09:15:19;;;;;;;2.03;1.00;;;;;;;17.51;100.00;101628.59;5031333;28;20021;-77
2023/09/13 09:17:48;;;;;;;1.60;0.80;;;;;;;17.41;100.00;101635.75;5032012;28;20052;-77
2023/09/13 09:20:18;;;;;;;1.33;0.80;;;;;;;17.34;100.00;101635.47;5031573;28;20029;-76
2023/09/13 09:22:43;;;;;;;2.72;0.90;;;;;;;17.25;100.00;101644.28;5031616;28;20504;-78
2023/09/13 09:25:13;;;;;;;1.05;0.70;;;;;;;17.15;100.00;101651.38;5030915;28;20025;-78
2023/09/13 09:27:40;;;;;;;3.70;0.90;;;;;;;17.13;100.00;101648.00;5032452;28;20088;-76
2023/09/13 09:30:14;;;;;;;1.55;0.95;;;;;;;17.17;100.00;101654.72;5012315;28;20097;-77
2023/09/13 09:32:41;;;;;;;2.47;0.90;;;;;;;17.24;100.00;101661.22;5011078;28;20038;-76
2023/09/13 09:35:07;;;;;;;1.35;0.90;;;;;;;17.21;100.00;101659.66;5026650;28;20064;-76
2023/09/13 09:37:35;;;;;;;1.38;0.80;;;;;;;17.22;100.00;101668.50;5011276;28;20022;-76
2023/09/13 09:40:01;;;;;;;2.00;1.00;;;;;;;17.30;100.00;101667.78;5011769;28;20121;-76
2023/09/13 09:42:29;;;;;;;2.58;0.90;;;;;;;17.37;100.00;101656.47;5009593;28;20030;-75
2023/09/13 09:44:55;;;;;;;2.15;1.50;;;;;;;17.48;100.00;101671.47;5011782;28;20038;-77
2023/09/13 09:47:21;;;;;;;1.55;1.00;;;;;;;17.62;100.00;101675.56;5011611;28;20029;-76
2023/09/13 09:49:47;;;;;;;3.10;1.33;;;;;;;17.59;100.00;101670.47;5026295;28;20025;-75
2023/09/13 09:52:17;;;;;;;1.58;1.20;;;;;;;17.57;100.00;101673.28;5012539;28;20545;-76
2023/09/13 09:54:50;;;;;;;2.08;0.90;;;;;;;17.69;100.00;101671.38;5011973;28;20033;-76
2023/09/13 09:57:25;;;;;;;3.80;1.30;;;;;;;17.99;100.00;101681.88;5012138;28;20465;-76
2023/09/13 09:59:51;;;;;;;1.42;0.90;;;;;;;18.15;100.00;101674.16;5011607;28;20026;-76
2023/09/13 10:02:17;;;;;;;1.45;0.90;;;;;;;18.18;98.08;101667.72;5013794;28;20026;-79
2023/09/13 10:04:48;;;;;;;3.60;1.00;;;;;;;18.15;97.51;101676.81;5010465;28;21138;-76
2023/09/13 10:07:13;;;;;;;3.45;1.23;;;;;;;18.45;99.32;101674.97;5012169;28;20401;-77
2023/09/13 10:09:39;;;;;;;2.00;1.10;;;;;;;18.48;94.19;101680.00;5010992;28;20026;-75
2023/09/13 10:12:10;;;;;;;1.63;1.00;;;;;;;18.79;95.38;101686.78;5010250;28;20025;-75
2023/09/13 10:14:37;;;;;;;1.50;1.13;;;;;;;18.81;91.80;101691.13;5013100;28;20025;-75
2023/09/13 10:17:04;;;;;;;2.28;1.20;;;;;;;18.90;93.28;101691.13;5027518;28;20033;-76
2023/09/13 10:19:31;;;;;;;2.95;1.60;;;;;;;18.95;91.42;101699.50;5012337;28;20033;-75
2023/09/13 10:21:57;;;;;;;3.97;1.30;;;;;;;19.02;90.45;101697.09;5027554;28;20451;-75
2023/09/13 10:24:24;;;;;;;2.00;1.02;;;;;;;18.92;91.90;101699.81;5012259;28;20101;-75
2023/09/13 10:26:52;;;;;;;3.08;1.30;;;;;;;19.01;92.75;101704.25;5011864;28;20018;-75
2023/09/13 10:29:31;;;;;;;2.75;1.30;;;;;;;19.19;91.41;101708.78;5022800;28;20048;-76
2023/09/13 10:32:02;;;;;;;1.98;1.23;;;;;;;19.25;88.57;101709.06;5031049;28;20025;-76
2023/09/13 10:34:29;;;;;;;2.60;1.15;;;;;;;19.31;87.97;101711.13;5030889;28;20029;-77
2023/09/13 10:37:07;;;;;;;1.48;1.15;;;;;;;19.53;88.28;101717.91;5029734;28;20037;-78
2023/09/13 10:39:37;;;;;;;1.95;1.10;;;;;;;19.51;87.77;101727.00;5030256;28;20029;-75
2023/09/13 10:42:04;;;;;;;3.08;1.20;;;;;;;19.66;89.25;101722.88;5029194;28;20469;-76
2023/09/13 10:44:30;;;;;;;1.55;1.10;;;;;;;19.69;88.71;101728.75;5030649;28;20049;-77
2023/09/13 10:46:56;;;;;;;3.45;1.13;;;;;;;19.87;89.28;101734.09;5029772;28;20052;-76
2023/09/13 10:49:26;;;;;;;2.83;1.05;;;;;;;19.76;88.59;101742.34;5030370;28;20021;-76
2023/09/13 10:51:55;;;;;;;2.30;1.13;;;;;;;19.49;88.11;101745.00;5030407;28;20108;-76
2023/09/13 10:54:21;;;;;;;2.38;1.02;;;;;;;19.32;89.21;101744.84;5025011;28;20029;-76
2023/09/13 10:56:47;;;;;;;3.75;1.00;;;;;;;19.23;90.11;101745.72;5011829;28;20475;-76
2023/09/13 10:59:21;;;;;;;6.32;1.95;;;;;;;19.25;90.03;101742.91;5011403;28;20022;-76
2023/09/13 11:01:47;;;;;;;2.50;1.98;;;;;;;19.16;87.57;101749.94;5010233;28;20025;-78
2023/09/13 11:04:19;;;;;;;2.80;1.58;;;;;;;19.09;87.71;101748.84;5009905;28;20108;-76
2023/09/13 11:06:50;;;;;;;2.50;1.52;;;;;;;19.17;88.74;101750.78;5009706;28;20033;-76